sensor_id;sensor_type;location;lat;lon;timestamp;pressure;altitude;pressure_sealevel;temperature;humidity
58690;BME280;44470;53.206;-6.106;2023-04-07T00:00:19;102025.88;;;18.93;51.47
58690;BME280;44470;53.206;-6.106;2023-04-07T00:02:45;102021.44;;;18.92;51.60
58690;BME280;44470;53.206;-6.106;2023-04-07T00:05:11;102021.44;;;18.92;51.49
58690;BME280;44470;53.206;-6.106;2023-04-07T00:07:37;102016.97;;;18.88;51.44
58690;BME280;44470;53.206;-6.106;2023-04-07T00:10:02;102025.88;;;18.93;51.41
58690;BME280;44470;53.206;-6.106;2023-04-07T00:12:28;102025.88;;;18.93;51.67
58690;BME280;44470;53.206;-6.106;2023-04-07T00:14:53;102023.22;;;18.93;51.84
58690;BME280;44470;53.206;-6.106;2023-04-07T00:17:19;102017.88;;;18.93;51.82
58690;BME280;44470;53.206;-6.106;2023-04-07T00:19:44;102025.00;;;18.93;51.45
58690;BME280;44470;53.206;-6.106;2023-04-07T00:22:10;102029.47;;;18.94;51.47
58690;BME280;44470;53.206;-6.106;2023-04-07T00:24:35;102020.56;;;18.93;51.28
58690;BME280;44470;53.206;-6.106;2023-04-07T00:27:01;102020.56;;;18.93;51.50
58690;BME280;44470;53.206;-6.106;2023-04-07T00:29:26;102024.13;;;18.95;51.25
58690;BME280;44470;53.206;-6.106;2023-04-07T00:31:52;102024.13;;;18.95;51.33
58690;BME280;44470;53.206;-6.106;2023-04-07T00:34:17;102017.91;;;18.95;51.54
58690;BME280;44470;53.206;-6.106;2023-04-07T00:36:43;102017.91;;;18.95;51.43
58690;BME280;44470;53.206;-6.106;2023-04-07T00:39:08;102021.44;;;18.92;51.18
58690;BME280;44470;53.206;-6.106;2023-04-07T00:41:34;102017.91;;;18.96;51.35
58690;BME280;44470;53.206;-6.106;2023-04-07T00:44:00;102013.44;;;18.95;51.61
58690;BME280;44470;53.206;-6.106;2023-04-07T00:46:26;102021.47;;;18.97;51.68
58690;BME280;44470;53.206;-6.106;2023-04-07T00:48:52;102013.44;;;18.92;51.38
58690;BME280;44470;53.206;-6.106;2023-04-07T00:51:20;102016.13;;;18.97;51.35
58690;BME280;44470;53.206;-6.106;2023-04-07T00:53:47;102017.03;;;18.97;51.49
58690;BME280;44470;53.206;-6.106;2023-04-07T00:56:13;102016.13;;;18.97;51.08
58690;BME280;44470;53.206;-6.106;2023-04-07T00:58:39;102013.50;;;18.98;51.82
58690;BME280;44470;53.206;-6.106;2023-04-07T01:01:17;102026.84;;;19.00;51.21
58690;BME280;44470;53.206;-6.106;2023-04-07T01:03:52;102018.84;;;19.00;51.05
58690;BME280;44470;53.206;-6.106;2023-04-07T01:06:24;102025.06;;;18.99;50.93
58690;BME280;44470;53.206;-6.106;2023-04-07T01:09:08;102025.94;;;18.99;51.40
58690;BME280;44470;53.206;-6.106;2023-04-07T01:11:56;102025.06;;;19.00;51.01
58690;BME280;44470;53.206;-6.106;2023-04-07T01:15:09;102033.06;;;19.00;51.43
58690;BME280;44470;53.206;-6.106;2023-04-07T01:17:44;102033.06;;;19.00;51.05
58690;BME280;44470;53.206;-6.106;2023-04-07T01:20:16;102017.94;;;18.99;51.29
58690;BME280;44470;53.206;-6.106;2023-04-07T01:22:46;102017.06;;;19.00;50.88
58690;BME280;44470;53.206;-6.106;2023-04-07T01:28:40;102016.16;;;19.01;50.51
58690;BME280;44470;53.206;-6.106;2023-04-07T01:31:11;102021.53;;;19.03;50.28
58690;BME280;44470;53.206;-6.106;2023-04-07T01:33:37;102014.31;;;18.94;50.40
58690;BME280;44470;53.206;-6.106;2023-04-07T01:36:06;102031.28;;;19.02;50.28
58690;BME280;44470;53.206;-6.106;2023-04-07T01:38:32;102031.31;;;19.04;50.66
58690;BME280;44470;53.206;-6.106;2023-04-07T01:40:59;102026.84;;;19.01;50.13
58690;BME280;44470;53.206;-6.106;2023-04-07T01:43:26;102025.06;;;19.03;50.54
58690;BME280;44470;53.206;-6.106;2023-04-07T01:45:53;102023.31;;;19.06;50.12
58690;BME280;44470;53.206;-6.106;2023-04-07T01:48:21;102032.19;;;19.08;50.37
58690;BME280;44470;53.206;-6.106;2023-04-07T01:50:48;102023.31;;;19.06;49.89
58690;BME280;44470;53.206;-6.106;2023-04-07T01:53:14;102028.63;;;19.06;50.35
58690;BME280;44470;53.206;-6.106;2023-04-07T01:55:42;102033.97;;;19.09;50.19
58690;BME280;44470;53.206;-6.106;2023-04-07T01:58:08;102033.13;;;19.10;50.11
58690;BME280;44470;53.206;-6.106;2023-04-07T02:00:36;102020.63;;;19.02;49.97
58690;BME280;44470;53.206;-6.106;2023-04-07T02:03:19;102035.78;;;19.11;49.96
58690;BME280;44470;53.206;-6.106;2023-04-07T02:05:48;102026.00;;;19.10;49.95
58690;BME280;44470;53.206;-6.106;2023-04-07T02:08:19;102029.56;;;19.11;49.85
58690;BME280;44470;53.206;-6.106;2023-04-07T02:10:47;102020.66;;;19.10;49.64
58690;BME280;44470;53.206;-6.106;2023-04-07T02:13:15;102023.34;;;19.10;49.93
58690;BME280;44470;53.206;-6.106;2023-04-07T02:15:43;102026.00;;;19.13;49.79
58690;BME280;44470;53.206;-6.106;2023-04-07T02:18:13;102013.50;;;19.05;49.47
58690;BME280;44470;53.206;-6.106;2023-04-07T02:20:41;102023.34;;;19.13;49.67
58690;BME280;44470;53.206;-6.106;2023-04-07T02:23:10;102017.13;;;19.13;49.82
58690;BME280;44470;53.206;-6.106;2023-04-07T02:25:35;102020.69;;;19.15;49.66
58690;BME280;44470;53.206;-6.106;2023-04-07T02:28:04;102022.47;;;19.16;49.67
58690;BME280;44470;53.206;-6.106;2023-04-07T02:30:32;102011.78;;;19.10;49.96
58690;BME280;44470;53.206;-6.106;2023-04-07T02:32:57;102023.34;;;19.16;49.61
58690;BME280;44470;53.206;-6.106;2023-04-07T02:35:23;102010.88;;;19.09;49.52
58690;BME280;44470;53.206;-6.106;2023-04-07T02:37:49;102026.91;;;19.19;49.51
58690;BME280;44470;53.206;-6.106;2023-04-07T02:40:15;102020.72;;;19.18;49.47
58690;BME280;44470;53.206;-6.106;2023-04-07T02:42:41;102024.28;;;19.20;49.35
58690;BME280;44470;53.206;-6.106;2023-04-07T02:45:07;102027.81;;;19.19;49.41
58690;BME280;44470;53.206;-6.106;2023-04-07T02:47:33;102022.50;;;19.19;49.14
58690;BME280;44470;53.206;-6.106;2023-04-07T02:49:59;102019.81;;;19.19;49.19
58690;BME280;44470;53.206;-6.106;2023-04-07T02:52:25;102026.94;;;19.20;49.52
58690;BME280;44470;53.206;-6.106;2023-04-07T02:54:52;102009.13;;;19.14;49.41
58690;BME280;44470;53.206;-6.106;2023-04-07T02:57:21;102019.84;;;19.22;49.32
58690;BME280;44470;53.206;-6.106;2023-04-07T02:59:48;102002.91;;;19.11;49.49
58690;BME280;44470;53.206;-6.106;2023-04-07T03:02:14;102025.16;;;19.22;49.48
58690;BME280;44470;53.206;-6.106;2023-04-07T03:04:40;102018.03;;;19.23;49.40
58690;BME280;44470;53.206;-6.106;2023-04-07T03:07:06;102024.28;;;19.23;49.17
58690;BME280;44470;53.206;-6.106;2023-04-07T03:09:32;102020.72;;;19.24;49.25
58690;BME280;44470;53.206;-6.106;2023-04-07T03:11:57;102010.91;;;19.22;49.28
58690;BME280;44470;53.206;-6.106;2023-04-07T03:14:25;102015.38;;;19.26;49.21
58690;BME280;44470;53.206;-6.106;2023-04-07T03:16:51;102021.63;;;19.26;48.93
58690;BME280;44470;53.206;-6.106;2023-04-07T03:19:16;102016.25;;;19.25;48.82
58690;BME280;44470;53.206;-6.106;2023-04-07T03:21:47;102010.91;;;19.25;48.79
58690;BME280;44470;53.206;-6.106;2023-04-07T03:24:13;102012.72;;;19.27;48.92
58690;BME280;44470;53.206;-6.106;2023-04-07T03:26:38;102008.28;;;19.26;48.70
58690;BME280;44470;53.206;-6.106;2023-04-07T03:29:24;102008.28;;;19.26;48.52
58690;BME280;44470;53.206;-6.106;2023-04-07T03:31:50;102015.38;;;19.29;48.93
58690;BME280;44470;53.206;-6.106;2023-04-07T03:34:20;102014.50;;;19.28;48.56
58690;BME280;44470;53.206;-6.106;2023-04-07T03:36:46;102019.84;;;19.30;48.61
58690;BME280;44470;53.206;-6.106;2023-04-07T03:39:11;102012.72;;;19.30;48.70
58690;BME280;44470;53.206;-6.106;2023-04-07T03:41:37;102008.28;;;19.29;48.61
58690;BME280;44470;53.206;-6.106;2023-04-07T03:44:03;102014.53;;;19.31;48.43
58690;BME280;44470;53.206;-6.106;2023-04-07T03:46:31;102016.28;;;19.31;48.09
58690;BME280;44470;53.206;-6.106;2023-04-07T03:48:57;102016.31;;;19.33;48.08
58690;BME280;44470;53.206;-6.106;2023-04-07T03:51:22;102006.50;;;19.25;48.16
58690;BME280;44470;53.206;-6.106;2023-04-07T03:53:53;102002.94;;;19.26;48.22
58690;BME280;44470;53.206;-6.106;2023-04-07T03:56:32;102010.06;;;19.34;48.23
58690;BME280;44470;53.206;-6.106;2023-04-07T03:58:58;102015.41;;;19.34;47.99
58690;BME280;44470;53.206;-6.106;2023-04-07T04:01:32;102010.06;;;19.34;48.33
58690;BME280;44470;53.206;-6.106;2023-04-07T04:04:05;102006.50;;;19.35;47.96
58690;BME280;44470;53.206;-6.106;2023-04-07T04:06:30;102006.50;;;19.35;48.06
58690;BME280;44470;53.206;-6.106;2023-04-07T04:09:04;102010.06;;;19.37;48.00
58690;BME280;44470;53.206;-6.106;2023-04-07T04:11:33;102002.06;;;19.35;47.81
58690;BME280;44470;53.206;-6.106;2023-04-07T04:14:02;101990.50;;;19.28;47.96
58690;BME280;44470;53.206;-6.106;2023-04-07T04:16:28;102011.00;;;19.37;47.85
58690;BME280;44470;53.206;-6.106;2023-04-07T04:18:57;102011.88;;;19.38;47.90
58690;BME280;44470;53.206;-6.106;2023-04-07T04:21:24;102006.53;;;19.38;47.92
58690;BME280;44470;53.206;-6.106;2023-04-07T04:23:52;102002.06;;;19.35;47.67
58690;BME280;44470;53.206;-6.106;2023-04-07T04:26:18;102009.19;;;19.38;47.68
58690;BME280;44470;53.206;-6.106;2023-04-07T04:28:45;101999.41;;;19.34;47.69
58690;BME280;44470;53.206;-6.106;2023-04-07T04:31:12;102015.44;;;19.40;47.78
58690;BME280;44470;53.206;-6.106;2023-04-07T04:33:41;102010.97;;;19.42;47.69
58690;BME280;44470;53.206;-6.106;2023-04-07T04:36:07;102008.31;;;19.40;47.73
58690;BME280;44470;53.206;-6.106;2023-04-07T04:38:33;102009.22;;;19.42;47.76
58690;BME280;44470;53.206;-6.106;2023-04-07T04:41:18;102011.00;;;19.43;47.51
58690;BME280;44470;53.206;-6.106;2023-04-07T04:43:45;102011.88;;;19.44;47.45
58690;BME280;44470;53.206;-6.106;2023-04-07T04:46:15;102003.88;;;19.44;47.35
58690;BME280;44470;53.206;-6.106;2023-04-07T04:48:42;102005.63;;;19.42;47.52
58690;BME280;44470;53.206;-6.106;2023-04-07T04:51:07;102011.88;;;19.44;47.58
58690;BME280;44470;53.206;-6.106;2023-04-07T04:53:34;102010.97;;;19.42;47.20
58690;BME280;44470;53.206;-6.106;2023-04-07T04:56:01;102014.53;;;19.44;47.15
58690;BME280;44470;53.206;-6.106;2023-04-07T04:58:36;102012.78;;;19.41;47.29
58690;BME280;44470;53.206;-6.106;2023-04-07T05:01:02;102008.31;;;19.43;47.38
58690;BME280;44470;53.206;-6.106;2023-04-07T05:03:35;102008.31;;;19.45;47.52
58690;BME280;44470;53.206;-6.106;2023-04-07T05:06:05;102008.34;;;19.46;46.92
58690;BME280;44470;53.206;-6.106;2023-04-07T05:09:02;102009.22;;;19.47;47.03
58690;BME280;44470;53.206;-6.106;2023-04-07T05:11:36;102015.47;;;19.48;46.77
58690;BME280;44470;53.206;-6.106;2023-04-07T05:14:02;102006.53;;;19.47;46.84
58690;BME280;44470;53.206;-6.106;2023-04-07T05:16:27;102009.22;;;19.49;46.87
58690;BME280;44470;53.206;-6.106;2023-04-07T05:18:53;102011.00;;;19.48;47.28
58690;BME280;44470;53.206;-6.106;2023-04-07T05:21:19;102005.66;;;19.43;47.19
58690;BME280;44470;53.206;-6.106;2023-04-07T05:23:46;102017.22;;;19.50;47.10
58690;BME280;44470;53.206;-6.106;2023-04-07T05:26:12;102018.13;;;19.49;47.27
58690;BME280;44470;53.206;-6.106;2023-04-07T05:28:38;102017.25;;;19.52;47.17
58690;BME280;44470;53.206;-6.106;2023-04-07T05:31:11;102011.00;;;19.48;47.10
58690;BME280;44470;53.206;-6.106;2023-04-07T05:33:37;102005.66;;;19.45;47.30
58690;BME280;44470;53.206;-6.106;2023-04-07T05:36:02;102016.34;;;19.53;47.10
58690;BME280;44470;53.206;-6.106;2023-04-07T05:38:29;102023.47;;;19.52;47.71
58690;BME280;44470;53.206;-6.106;2023-04-07T05:40:58;102027.03;;;19.54;47.89
58690;BME280;44470;53.206;-6.106;2023-04-07T05:43:29;102025.25;;;19.55;47.07
58690;BME280;44470;53.206;-6.106;2023-04-07T05:45:55;102028.81;;;19.55;47.16
58690;BME280;44470;53.206;-6.106;2023-04-07T05:48:22;102029.69;;;19.57;46.98
58690;BME280;44470;53.206;-6.106;2023-04-07T05:50:47;102028.81;;;19.58;47.25
58690;BME280;44470;53.206;-6.106;2023-04-07T05:53:16;102028.81;;;19.57;47.64
58690;BME280;44470;53.206;-6.106;2023-04-07T05:55:42;102030.59;;;19.58;48.28
58690;BME280;44470;53.206;-6.106;2023-04-07T05:58:10;102027.03;;;19.57;47.58
58690;BME280;44470;53.206;-6.106;2023-04-07T06:00:39;102033.25;;;19.59;48.26
58690;BME280;44470;53.206;-6.106;2023-04-07T06:03:11;102026.16;;;19.60;47.95
58690;BME280;44470;53.206;-6.106;2023-04-07T06:05:49;102027.03;;;19.59;47.52
58690;BME280;44470;53.206;-6.106;2023-04-07T06:08:17;102032.38;;;19.60;47.38
58690;BME280;44470;53.206;-6.106;2023-04-07T06:10:43;102031.47;;;19.61;47.90
58690;BME280;44470;53.206;-6.106;2023-04-07T06:13:10;102034.19;;;19.63;47.10
58690;BME280;44470;53.206;-6.106;2023-04-07T06:15:35;102015.47;;;19.58;47.33
58690;BME280;44470;53.206;-6.106;2023-04-07T06:18:01;102037.72;;;19.62;46.73
58690;BME280;44470;53.206;-6.106;2023-04-07T06:20:27;102037.75;;;19.64;47.86
58690;BME280;44470;53.206;-6.106;2023-04-07T06:22:53;102027.94;;;19.61;48.34
58690;BME280;44470;53.206;-6.106;2023-04-07T06:25:19;102038.66;;;19.63;48.17
58690;BME280;44470;53.206;-6.106;2023-04-07T06:27:45;102036.88;;;19.65;48.15
58690;BME280;44470;53.206;-6.106;2023-04-07T06:30:11;102043.09;;;19.65;47.49
58690;BME280;44470;53.206;-6.106;2023-04-07T06:32:37;102034.19;;;19.65;47.36
58690;BME280;44470;53.206;-6.106;2023-04-07T06:35:03;102051.13;;;19.67;47.70
58690;BME280;44470;53.206;-6.106;2023-04-07T06:37:28;102050.22;;;19.69;47.58
58690;BME280;44470;53.206;-6.106;2023-04-07T06:39:54;102042.22;;;19.68;47.41
58690;BME280;44470;53.206;-6.106;2023-04-07T06:42:20;102043.09;;;19.67;47.96
58690;BME280;44470;53.206;-6.106;2023-04-07T06:44:57;102043.09;;;19.68;48.23
58690;BME280;44470;53.206;-6.106;2023-04-07T06:47:22;102039.53;;;19.69;48.51
58690;BME280;44470;53.206;-6.106;2023-04-07T06:49:48;102038.66;;;19.69;47.82
58690;BME280;44470;53.206;-6.106;2023-04-07T06:52:14;102050.22;;;19.69;47.98
58690;BME280;44470;53.206;-6.106;2023-04-07T06:54:39;102046.66;;;19.70;48.10
58690;BME280;44470;53.206;-6.106;2023-04-07T06:57:05;102047.56;;;19.71;47.78
58690;BME280;44470;53.206;-6.106;2023-04-07T06:59:39;102048.44;;;19.71;48.12
58690;BME280;44470;53.206;-6.106;2023-04-07T07:02:04;102042.22;;;19.71;48.39
58690;BME280;44470;53.206;-6.106;2023-04-07T07:04:32;102052.91;;;19.74;47.95
58690;BME280;44470;53.206;-6.106;2023-04-07T07:06:58;102046.66;;;19.72;47.88
58690;BME280;44470;53.206;-6.106;2023-04-07T07:09:24;102048.44;;;19.70;47.98
58690;BME280;44470;53.206;-6.106;2023-04-07T07:11:51;102052.91;;;19.74;47.66
58690;BME280;44470;53.206;-6.106;2023-04-07T07:14:17;102057.34;;;19.72;47.82
58690;BME280;44470;53.206;-6.106;2023-04-07T07:16:42;102057.34;;;19.75;47.47
58690;BME280;44470;53.206;-6.106;2023-04-07T07:19:08;102064.47;;;19.76;48.17
58690;BME280;44470;53.206;-6.106;2023-04-07T07:21:34;102057.34;;;19.69;47.56
58690;BME280;44470;53.206;-6.106;2023-04-07T07:23:59;102074.28;;;19.77;47.87
58690;BME280;44470;53.206;-6.106;2023-04-07T07:26:25;102073.38;;;19.78;47.66
58690;BME280;44470;53.206;-6.106;2023-04-07T07:28:51;102067.16;;;19.79;48.38
58690;BME280;44470;53.206;-6.106;2023-04-07T07:31:17;102061.81;;;19.79;48.14
58690;BME280;44470;53.206;-6.106;2023-04-07T07:33:43;102074.28;;;19.77;48.28
58690;BME280;44470;53.206;-6.106;2023-04-07T07:36:10;102069.81;;;19.76;47.09
58690;BME280;44470;53.206;-6.106;2023-04-07T07:38:36;102061.81;;;19.79;46.61
58690;BME280;44470;53.206;-6.106;2023-04-07T07:41:02;102062.69;;;19.80;47.17
58690;BME280;44470;53.206;-6.106;2023-04-07T07:43:27;102042.22;;;19.71;46.95
58690;BME280;44470;53.206;-6.106;2023-04-07T07:45:53;102060.03;;;19.81;46.31
58690;BME280;44470;53.206;-6.106;2023-04-07T07:48:19;102058.22;;;19.82;46.40
58690;BME280;44470;53.206;-6.106;2023-04-07T07:50:44;102053.78;;;19.74;46.56
58690;BME280;44470;53.206;-6.106;2023-04-07T07:53:11;102062.69;;;19.83;46.33
58690;BME280;44470;53.206;-6.106;2023-04-07T07:55:36;102062.69;;;19.83;46.96
58690;BME280;44470;53.206;-6.106;2023-04-07T07:58:02;102050.22;;;19.75;46.36
58690;BME280;44470;53.206;-6.106;2023-04-07T08:00:27;102076.94;;;19.85;46.82
58690;BME280;44470;53.206;-6.106;2023-04-07T08:02:53;102073.38;;;19.86;46.41
58690;BME280;44470;53.206;-6.106;2023-04-07T08:05:19;102066.25;;;19.88;47.00
58690;BME280;44470;53.206;-6.106;2023-04-07T08:07:44;102072.56;;;19.90;47.51
58690;BME280;44470;53.206;-6.106;2023-04-07T08:10:11;102069.81;;;19.87;47.83
58690;BME280;44470;53.206;-6.106;2023-04-07T08:12:37;102065.38;;;19.87;47.62
58690;BME280;44470;53.206;-6.106;2023-04-07T08:15:03;102068.06;;;19.89;48.33
58690;BME280;44470;53.206;-6.106;2023-04-07T08:17:29;102060.94;;;19.89;47.49
58690;BME280;44470;53.206;-6.106;2023-04-07T08:19:55;102054.72;;;19.91;48.37
58690;BME280;44470;53.206;-6.106;2023-04-07T08:22:20;102060.06;;;19.91;48.35
58690;BME280;44470;53.206;-6.106;2023-04-07T08:24:45;102061.84;;;19.92;48.04
58690;BME280;44470;53.206;-6.106;2023-04-07T08:27:12;102060.06;;;19.89;48.76
58690;BME280;44470;53.206;-6.106;2023-04-07T08:29:37;102060.06;;;19.91;48.84
58690;BME280;44470;53.206;-6.106;2023-04-07T08:32:03;102054.72;;;19.94;48.63
58690;BME280;44470;53.206;-6.106;2023-04-07T08:34:29;102053.84;;;19.92;49.25
58690;BME280;44470;53.206;-6.106;2023-04-07T08:36:54;102057.41;;;19.92;48.80
58690;BME280;44470;53.206;-6.106;2023-04-07T08:39:20;102060.06;;;19.94;48.74
58690;BME280;44470;53.206;-6.106;2023-04-07T08:41:47;102059.19;;;19.93;49.20
58690;BME280;44470;53.206;-6.106;2023-04-07T08:44:15;102063.66;;;19.94;48.98
58690;BME280;44470;53.206;-6.106;2023-04-07T08:50:28;102047.59;;;19.93;49.80
58690;BME280;44470;53.206;-6.106;2023-04-07T08:52:55;102047.56;;;19.86;49.65
58690;BME280;44470;53.206;-6.106;2023-04-07T08:55:22;102060.97;;;19.96;49.78
58690;BME280;44470;53.206;-6.106;2023-04-07T08:57:48;102057.41;;;19.97;49.91
58690;BME280;44470;53.206;-6.106;2023-04-07T09:00:14;102052.06;;;19.97;49.70
58690;BME280;44470;53.206;-6.106;2023-04-07T09:02:42;102056.53;;;20.01;49.59
58690;BME280;44470;53.206;-6.106;2023-04-07T09:05:12;102054.75;;;20.25;49.92
58690;BME280;44470;53.206;-6.106;2023-04-07T09:07:41;102047.63;;;20.30;49.66
58690;BME280;44470;53.206;-6.106;2023-04-07T09:10:09;102046.72;;;20.29;50.27
58690;BME280;44470;53.206;-6.106;2023-04-07T09:12:35;102048.50;;;20.21;49.96
58690;BME280;44470;53.206;-6.106;2023-04-07T09:15:01;102060.09;;;20.20;49.80
58690;BME280;44470;53.206;-6.106;2023-04-07T09:17:27;102057.41;;;20.17;49.76
58690;BME280;44470;53.206;-6.106;2023-04-07T09:20:00;102057.44;;;20.18;49.79
58690;BME280;44470;53.206;-6.106;2023-04-07T09:22:40;102061.00;;;20.13;49.08
58690;BME280;44470;53.206;-6.106;2023-04-07T09:27:38;102059.19;;;19.93;45.94
58690;BME280;44470;53.206;-6.106;2023-04-07T09:30:11;102061.81;;;19.82;45.13
58690;BME280;44470;53.206;-6.106;2023-04-07T09:32:37;102056.47;;;19.79;45.29
58690;BME280;44470;53.206;-6.106;2023-04-07T09:35:03;102060.91;;;19.77;44.86
58690;BME280;44470;53.206;-6.106;2023-04-07T09:37:28;102063.56;;;19.68;44.76
58690;BME280;44470;53.206;-6.106;2023-04-07T09:39:54;102064.47;;;19.71;45.92
58690;BME280;44470;53.206;-6.106;2023-04-07T09:42:19;102068.03;;;19.77;47.05
58690;BME280;44470;53.206;-6.106;2023-04-07T09:44:45;102058.25;;;19.80;46.92
58690;BME280;44470;53.206;-6.106;2023-04-07T09:47:11;102061.81;;;19.84;47.01
58690;BME280;44470;53.206;-6.106;2023-04-07T09:49:53;102063.59;;;19.86;47.32
58690;BME280;44470;53.206;-6.106;2023-04-07T09:52:49;102067.16;;;19.88;47.88
58690;BME280;44470;53.206;-6.106;2023-04-07T09:55:22;102048.47;;;19.82;47.91
58690;BME280;44470;53.206;-6.106;2023-04-07T09:57:49;102052.03;;;19.84;47.74
58690;BME280;44470;53.206;-6.106;2023-04-07T10:00:15;102061.84;;;19.95;47.94
58690;BME280;44470;53.206;-6.106;2023-04-07T10:02:42;102062.75;;;19.95;48.19
58690;BME280;44470;53.206;-6.106;2023-04-07T10:05:09;102060.97;;;19.97;48.34
58690;BME280;44470;53.206;-6.106;2023-04-07T10:07:34;102059.19;;;19.96;48.29
58690;BME280;44470;53.206;-6.106;2023-04-07T10:10:00;102056.53;;;19.99;48.36
58690;BME280;44470;53.206;-6.106;2023-04-07T10:12:26;102045.81;;;19.95;48.29
58690;BME280;44470;53.206;-6.106;2023-04-07T10:14:53;102050.28;;;20.00;47.99
58690;BME280;44470;53.206;-6.106;2023-04-07T10:17:20;102054.69;;;20.70;48.05
58690;BME280;44470;53.206;-6.106;2023-04-07T10:19:47;102044.91;;;20.70;48.18
58690;BME280;44470;53.206;-6.106;2023-04-07T10:22:13;102052.03;;;20.62;48.33
58690;BME280;44470;53.206;-6.106;2023-04-07T10:24:59;102056.50;;;20.54;48.93
58690;BME280;44470;53.206;-6.106;2023-04-07T10:27:36;102061.88;;;20.49;48.89
58690;BME280;44470;53.206;-6.106;2023-04-07T10:30:05;102053.84;;;20.47;49.15
58690;BME280;44470;53.206;-6.106;2023-04-07T10:32:31;102058.28;;;20.52;49.00
58690;BME280;44470;53.206;-6.106;2023-04-07T10:34:57;102065.41;;;20.53;49.12
58690;BME280;44470;53.206;-6.106;2023-04-07T10:37:24;102053.84;;;20.51;49.34
58690;BME280;44470;53.206;-6.106;2023-04-07T10:42:44;102052.94;;;20.55;48.99
58690;BME280;44470;53.206;-6.106;2023-04-07T10:45:11;102058.28;;;20.52;49.26
58690;BME280;44470;53.206;-6.106;2023-04-07T10:50:24;102048.47;;;20.61;48.59
58690;BME280;44470;53.206;-6.106;2023-04-07T10:55:44;102049.38;;;20.51;48.10
58690;BME280;44470;53.206;-6.106;2023-04-07T10:58:24;102045.78;;;20.68;49.00
58690;BME280;44470;53.206;-6.106;2023-04-07T11:03:22;102039.56;;;20.70;48.87
58690;BME280;44470;53.206;-6.106;2023-04-07T11:05:48;102041.34;;;20.54;49.25
58690;BME280;44470;53.206;-6.106;2023-04-07T11:08:13;102044.03;;;20.53;49.22
58690;BME280;44470;53.206;-6.106;2023-04-07T11:10:39;102046.69;;;20.50;48.99
58690;BME280;44470;53.206;-6.106;2023-04-07T11:13:11;102038.69;;;20.46;49.12
58690;BME280;44470;53.206;-6.106;2023-04-07T11:15:37;102055.59;;;20.55;49.43
58690;BME280;44470;53.206;-6.106;2023-04-07T11:18:16;102052.94;;;20.55;49.71
58690;BME280;44470;53.206;-6.106;2023-04-07T11:20:43;102048.47;;;20.57;49.67
58690;BME280;44470;53.206;-6.106;2023-04-07T11:23:09;102048.50;;;20.52;49.63
58690;BME280;44470;53.206;-6.106;2023-04-07T11:25:35;102049.34;;;20.59;49.78
58690;BME280;44470;53.206;-6.106;2023-04-07T11:28:03;102049.34;;;20.59;49.94
58690;BME280;44470;53.206;-6.106;2023-04-07T11:30:29;102043.16;;;20.52;50.28
58690;BME280;44470;53.206;-6.106;2023-04-07T11:32:57;102043.13;;;20.57;49.98
58690;BME280;44470;53.206;-6.106;2023-04-07T11:35:24;102045.78;;;20.85;50.95
58690;BME280;44470;53.206;-6.106;2023-04-07T11:37:56;102045.78;;;20.75;50.58
58690;BME280;44470;53.206;-6.106;2023-04-07T11:40:35;102044.91;;;20.62;50.89
58690;BME280;44470;53.206;-6.106;2023-04-07T11:43:14;102029.75;;;20.51;50.80
58690;BME280;44470;53.206;-6.106;2023-04-07T11:45:40;102031.53;;;20.52;50.41
58690;BME280;44470;53.206;-6.106;2023-04-07T11:48:24;102045.78;;;20.60;50.48
58690;BME280;44470;53.206;-6.106;2023-04-07T11:50:50;102047.59;;;20.55;50.33
58690;BME280;44470;53.206;-6.106;2023-04-07T11:56:02;102050.22;;;20.64;50.32
58690;BME280;44470;53.206;-6.106;2023-04-07T11:58:28;102062.75;;;20.60;50.25
58690;BME280;44470;53.206;-6.106;2023-04-07T12:00:58;102052.94;;;20.52;50.61
58690;BME280;44470;53.206;-6.106;2023-04-07T12:03:27;102022.63;;;20.50;50.11
58690;BME280;44470;53.206;-6.106;2023-04-07T12:05:54;102029.75;;;20.51;50.18
58690;BME280;44470;53.206;-6.106;2023-04-07T12:08:19;102051.16;;;20.57;50.52
58690;BME280;44470;53.206;-6.106;2023-04-07T12:10:45;102058.28;;;20.55;50.87
58690;BME280;44470;53.206;-6.106;2023-04-07T12:13:12;102050.25;;;20.58;50.48
58690;BME280;44470;53.206;-6.106;2023-04-07T12:15:38;102037.81;;;20.52;50.81
58690;BME280;44470;53.206;-6.106;2023-04-07T12:18:04;102061.84;;;20.60;50.63
58690;BME280;44470;53.206;-6.106;2023-04-07T12:20:30;102044.91;;;20.48;50.64
58690;BME280;44470;53.206;-6.106;2023-04-07T12:22:56;102052.94;;;20.62;50.69
58690;BME280;44470;53.206;-6.106;2023-04-07T12:25:22;102050.22;;;20.64;50.55
58690;BME280;44470;53.206;-6.106;2023-04-07T12:27:47;102046.66;;;20.62;50.61
58690;BME280;44470;53.206;-6.106;2023-04-07T12:30:13;102058.25;;;20.64;50.88
58690;BME280;44470;53.206;-6.106;2023-04-07T12:32:38;102052.03;;;20.64;50.74
58690;BME280;44470;53.206;-6.106;2023-04-07T12:35:04;102061.81;;;20.63;50.56
58690;BME280;44470;53.206;-6.106;2023-04-07T12:37:30;102044.00;;;20.67;50.60
58690;BME280;44470;53.206;-6.106;2023-04-07T12:39:57;102044.88;;;20.64;50.51
58690;BME280;44470;53.206;-6.106;2023-04-07T12:42:43;102047.56;;;20.66;50.89
58690;BME280;44470;53.206;-6.106;2023-04-07T12:45:09;102050.22;;;20.67;51.10
58690;BME280;44470;53.206;-6.106;2023-04-07T12:47:34;102041.31;;;20.67;51.01
58690;BME280;44470;53.206;-6.106;2023-04-07T12:50:00;102043.09;;;20.68;51.10
58690;BME280;44470;53.206;-6.106;2023-04-07T12:52:26;102040.41;;;20.66;50.86
58690;BME280;44470;53.206;-6.106;2023-04-07T12:54:51;102042.22;;;20.70;50.97
58690;BME280;44470;53.206;-6.106;2023-04-07T12:57:18;102036.00;;;20.68;51.07
58690;BME280;44470;53.206;-6.106;2023-04-07T12:59:43;102029.72;;;20.66;51.24
58690;BME280;44470;53.206;-6.106;2023-04-07T13:02:09;102035.09;;;20.68;51.00
58690;BME280;44470;53.206;-6.106;2023-04-07T13:04:38;102035.09;;;20.72;50.86
58690;BME280;44470;53.206;-6.106;2023-04-07T13:07:07;102034.19;;;20.69;50.99